sensor_id;sensor_type;location;lat;lon;timestamp;P1;durP1;ratioP1;P2;durP2;ratioP2
72601;SDS011;60644;55.858;37.390;2023-04-07T00:01:51;4.30;;;0.57;;
72601;SDS011;60644;55.858;37.390;2023-04-07T00:04:16;5.30;;;0.73;;
72601;SDS011;60644;55.858;37.390;2023-04-07T00:06:42;4.57;;;0.60;;
72601;SDS011;60644;55.858;37.390;2023-04-07T00:09:08;4.40;;;0.50;;
72601;SDS011;60644;55.858;37.390;2023-04-07T00:11:34;3.87;;;0.40;;
72601;SDS011;60644;55.858;37.390;2023-04-07T00:14:00;3.45;;;0.60;;
72601;SDS011;60644;55.858;37.390;2023-04-07T00:16:25;2.67;;;0.40;;
72601;SDS011;60644;55.858;37.390;2023-04-07T00:18:51;3.38;;;0.50;;
72601;SDS011;60644;55.858;37.390;2023-04-07T00:21:17;3.40;;;0.50;;
72601;SDS011;60644;55.858;37.390;2023-04-07T00:23:42;2.45;;;0.40;;
72601;SDS011;60644;55.858;37.390;2023-04-07T00:26:08;3.73;;;0.53;;
72601;SDS011;60644;55.858;37.390;2023-04-07T00:28:34;3.97;;;0.50;;
72601;SDS011;60644;55.858;37.390;2023-04-07T00:31:00;3.37;;;0.70;;
72601;SDS011;60644;55.858;37.390;2023-04-07T00:33:25;4.27;;;0.60;;
72601;SDS011;60644;55.858;37.390;2023-04-07T00:35:51;3.90;;;0.50;;
72601;SDS011;60644;55.858;37.390;2023-04-07T00:38:18;2.92;;;0.43;;
72601;SDS011;60644;55.858;37.390;2023-04-07T00:40:44;5.50;;;0.80;;
72601;SDS011;60644;55.858;37.390;2023-04-07T00:43:10;3.03;;;0.70;;
72601;SDS011;60644;55.858;37.390;2023-04-07T00:45:36;4.22;;;0.70;;
72601;SDS011;60644;55.858;37.390;2023-04-07T00:48:03;4.78;;;0.60;;
72601;SDS011;60644;55.858;37.390;2023-04-07T00:50:28;3.63;;;0.63;;
72601;SDS011;60644;55.858;37.390;2023-04-07T00:52:54;3.15;;;0.47;;
72601;SDS011;60644;55.858;37.390;2023-04-07T00:55:21;2.38;;;0.50;;
72601;SDS011;60644;55.858;37.390;2023-04-07T00:57:47;4.87;;;0.80;;
72601;SDS011;60644;55.858;37.390;2023-04-07T01:00:14;3.80;;;0.68;;
72601;SDS011;60644;55.858;37.390;2023-04-07T01:02:41;1.98;;;0.40;;
72601;SDS011;60644;55.858;37.390;2023-04-07T01:05:22;3.60;;;0.57;;
72601;SDS011;60644;55.858;37.390;2023-04-07T01:07:54;4.33;;;0.63;;
72601;SDS011;60644;55.858;37.390;2023-04-07T01:10:34;4.18;;;0.65;;
72601;SDS011;60644;55.858;37.390;2023-04-07T01:15:43;3.13;;;0.30;;
72601;SDS011;60644;55.858;37.390;2023-04-07T01:18:18;4.40;;;0.80;;
72601;SDS011;60644;55.858;37.390;2023-04-07T01:20:45;3.00;;;0.40;;
72601;SDS011;60644;55.858;37.390;2023-04-07T01:23:14;4.68;;;0.70;;
72601;SDS011;60644;55.858;37.390;2023-04-07T01:29:02;2.80;;;0.50;;
72601;SDS011;60644;55.858;37.390;2023-04-07T01:31:03;4.65;;;0.35;;
72601;SDS011;60644;55.858;37.390;2023-04-07T01:33:30;3.93;;;0.40;;
72601;SDS011;60644;55.858;37.390;2023-04-07T01:35:57;2.70;;;0.50;;
72601;SDS011;60644;55.858;37.390;2023-04-07T01:38:23;3.25;;;0.55;;
72601;SDS011;60644;55.858;37.390;2023-04-07T01:40:50;3.97;;;0.70;;
72601;SDS011;60644;55.858;37.390;2023-04-07T01:43:16;4.50;;;0.47;;
72601;SDS011;60644;55.858;37.390;2023-04-07T01:45:42;2.97;;;0.40;;
72601;SDS011;60644;55.858;37.390;2023-04-07T01:48:08;4.18;;;0.50;;
72601;SDS011;60644;55.858;37.390;2023-04-07T01:50:34;4.95;;;0.40;;
72601;SDS011;60644;55.858;37.390;2023-04-07T01:53:00;3.08;;;0.40;;
72601;SDS011;60644;55.858;37.390;2023-04-07T01:55:27;5.22;;;0.40;;
72601;SDS011;60644;55.858;37.390;2023-04-07T01:58:04;4.38;;;0.88;;
72601;SDS011;60644;55.858;37.390;2023-04-07T02:00:30;2.95;;;0.60;;
72601;SDS011;60644;55.858;37.390;2023-04-07T02:02:58;3.15;;;0.50;;
72601;SDS011;60644;55.858;37.390;2023-04-07T02:05:29;3.03;;;0.53;;
72601;SDS011;60644;55.858;37.390;2023-04-07T02:07:57;5.05;;;0.70;;
72601;SDS011;60644;55.858;37.390;2023-04-07T02:10:24;5.05;;;0.52;;
72601;SDS011;60644;55.858;37.390;2023-04-07T02:12:53;4.75;;;0.50;;
72601;SDS011;60644;55.858;37.390;2023-04-07T02:15:20;3.35;;;0.60;;
72601;SDS011;60644;55.858;37.390;2023-04-07T02:17:47;4.07;;;0.70;;
72601;SDS011;60644;55.858;37.390;2023-04-07T02:20:13;6.32;;;0.43;;
72601;SDS011;60644;55.858;37.390;2023-04-07T02:22:39;4.88;;;0.60;;
72601;SDS011;60644;55.858;37.390;2023-04-07T02:25:23;5.68;;;0.50;;
72601;SDS011;60644;55.858;37.390;2023-04-07T02:27:48;3.87;;;0.40;;
72601;SDS011;60644;55.858;37.390;2023-04-07T02:30:14;5.88;;;0.55;;
72601;SDS011;60644;55.858;37.390;2023-04-07T02:32:40;4.17;;;0.60;;
72601;SDS011;60644;55.858;37.390;2023-04-07T02:35:05;4.40;;;0.50;;
72601;SDS011;60644;55.858;37.390;2023-04-07T02:37:33;4.83;;;0.70;;
72601;SDS011;60644;55.858;37.390;2023-04-07T02:40:00;5.20;;;0.70;;
72601;SDS011;60644;55.858;37.390;2023-04-07T02:42:25;6.60;;;1.13;;
72601;SDS011;60644;55.858;37.390;2023-04-07T02:44:51;4.40;;;0.85;;
72601;SDS011;60644;55.858;37.390;2023-04-07T02:47:16;4.37;;;0.70;;
72601;SDS011;60644;55.858;37.390;2023-04-07T02:49:42;7.03;;;0.83;;
72601;SDS011;60644;55.858;37.390;2023-04-07T02:52:07;4.95;;;0.50;;
72601;SDS011;60644;55.858;37.390;2023-04-07T02:54:33;4.30;;;0.40;;
72601;SDS011;60644;55.858;37.390;2023-04-07T02:56:59;5.63;;;1.30;;
72601;SDS011;60644;55.858;37.390;2023-04-07T02:59:26;5.20;;;0.77;;
72601;SDS011;60644;55.858;37.390;2023-04-07T03:01:51;4.30;;;0.50;;
72601;SDS011;60644;55.858;37.390;2023-04-07T03:04:17;3.05;;;0.65;;
72601;SDS011;60644;55.858;37.390;2023-04-07T03:06:43;6.13;;;0.80;;
72601;SDS011;60644;55.858;37.390;2023-04-07T03:09:13;4.35;;;0.60;;
72601;SDS011;60644;55.858;37.390;2023-04-07T03:11:39;3.78;;;0.57;;
72601;SDS011;60644;55.858;37.390;2023-04-07T03:14:06;5.47;;;0.60;;
72601;SDS011;60644;55.858;37.390;2023-04-07T03:16:38;3.38;;;0.75;;
72601;SDS011;60644;55.858;37.390;2023-04-07T03:19:09;3.33;;;0.60;;
72601;SDS011;60644;55.858;37.390;2023-04-07T03:21:40;10.70;;;1.02;;
72601;SDS011;60644;55.858;37.390;2023-04-07T03:24:07;7.38;;;1.23;;
72601;SDS011;60644;55.858;37.390;2023-04-07T03:26:33;6.32;;;0.68;;
72601;SDS011;60644;55.858;37.390;2023-04-07T03:29:00;6.30;;;0.80;;
72601;SDS011;60644;55.858;37.390;2023-04-07T03:31:27;5.00;;;0.60;;
72601;SDS011;60644;55.858;37.390;2023-04-07T03:33:55;3.83;;;0.70;;
72601;SDS011;60644;55.858;37.390;2023-04-07T03:36:21;4.88;;;0.90;;
72601;SDS011;60644;55.858;37.390;2023-04-07T03:38:47;6.13;;;1.27;;
72601;SDS011;60644;55.858;37.390;2023-04-07T03:41:14;8.00;;;1.00;;
72601;SDS011;60644;55.858;37.390;2023-04-07T03:43:40;4.18;;;1.10;;
72601;SDS011;60644;55.858;37.390;2023-04-07T03:46:06;7.03;;;0.88;;
72601;SDS011;60644;55.858;37.390;2023-04-07T03:48:32;5.18;;;0.70;;
72601;SDS011;60644;55.858;37.390;2023-04-07T03:51:05;7.45;;;0.85;;
72601;SDS011;60644;55.858;37.390;2023-04-07T03:53:31;4.43;;;0.60;;
72601;SDS011;60644;55.858;37.390;2023-04-07T03:56:00;8.38;;;0.70;;
72601;SDS011;60644;55.858;37.390;2023-04-07T03:58:40;7.07;;;0.70;;
72601;SDS011;60644;55.858;37.390;2023-04-07T04:01:11;6.22;;;0.88;;
72601;SDS011;60644;55.858;37.390;2023-04-07T04:03:38;8.02;;;1.10;;
72601;SDS011;60644;55.858;37.390;2023-04-07T04:06:25;6.30;;;0.68;;
72601;SDS011;60644;55.858;37.390;2023-04-07T04:08:55;4.50;;;1.13;;
72601;SDS011;60644;55.858;37.390;2023-04-07T04:11:22;5.97;;;0.97;;
72601;SDS011;60644;55.858;37.390;2023-04-07T04:13:55;5.15;;;0.90;;
72601;SDS011;60644;55.858;37.390;2023-04-07T04:16:29;5.55;;;0.95;;
72601;SDS011;60644;55.858;37.390;2023-04-07T04:19:00;6.35;;;1.30;;
72601;SDS011;60644;55.858;37.390;2023-04-07T04:21:29;7.65;;;1.00;;
72601;SDS011;60644;55.858;37.390;2023-04-07T04:23:55;5.70;;;0.80;;
72601;SDS011;60644;55.858;37.390;2023-04-07T04:26:21;5.10;;;0.93;;
72601;SDS011;60644;55.858;37.390;2023-04-07T04:28:51;9.10;;;1.23;;
72601;SDS011;60644;55.858;37.390;2023-04-07T04:31:19;5.38;;;1.10;;
72601;SDS011;60644;55.858;37.390;2023-04-07T04:33:46;11.90;;;1.05;;
72601;SDS011;60644;55.858;37.390;2023-04-07T04:36:11;6.00;;;1.17;;
72601;SDS011;60644;55.858;37.390;2023-04-07T04:38:38;6.25;;;1.30;;
72601;SDS011;60644;55.858;37.390;2023-04-07T04:41:12;7.28;;;1.10;;
72601;SDS011;60644;55.858;37.390;2023-04-07T04:43:38;5.23;;;1.20;;
72601;SDS011;60644;55.858;37.390;2023-04-07T04:46:05;7.70;;;0.90;;
72601;SDS011;60644;55.858;37.390;2023-04-07T04:48:36;8.35;;;1.38;;
72601;SDS011;60644;55.858;37.390;2023-04-07T04:51:04;5.38;;;1.10;;
72601;SDS011;60644;55.858;37.390;2023-04-07T04:53:30;7.10;;;1.20;;
72601;SDS011;60644;55.858;37.390;2023-04-07T04:55:59;6.72;;;1.30;;
72601;SDS011;60644;55.858;37.390;2023-04-07T04:58:35;7.25;;;1.23;;
72601;SDS011;60644;55.858;37.390;2023-04-07T05:01:01;3.80;;;1.00;;
72601;SDS011;60644;55.858;37.390;2023-04-07T05:03:34;5.03;;;0.83;;
72601;SDS011;60644;55.858;37.390;2023-04-07T05:06:03;4.55;;;1.42;;
72601;SDS011;60644;55.858;37.390;2023-04-07T05:08:30;7.97;;;1.45;;
72601;SDS011;60644;55.858;37.390;2023-04-07T05:10:56;9.57;;;1.27;;
72601;SDS011;60644;55.858;37.390;2023-04-07T05:13:24;7.35;;;1.55;;
72601;SDS011;60644;55.858;37.390;2023-04-07T05:15:51;5.03;;;0.80;;
72601;SDS011;60644;55.858;37.390;2023-04-07T05:18:20;9.15;;;1.30;;
72601;SDS011;60644;55.858;37.390;2023-04-07T05:20:47;7.03;;;1.38;;
72601;SDS011;60644;55.858;37.390;2023-04-07T05:23:13;5.47;;;1.35;;
72601;SDS011;60644;55.858;37.390;2023-04-07T05:25:40;10.17;;;1.13;;
72601;SDS011;60644;55.858;37.390;2023-04-07T05:28:09;11.45;;;1.70;;
72601;SDS011;60644;55.858;37.390;2023-04-07T05:30:36;7.88;;;1.85;;
72601;SDS011;60644;55.858;37.390;2023-04-07T05:33:05;6.75;;;1.55;;
72601;SDS011;60644;55.858;37.390;2023-04-07T05:35:51;7.82;;;1.25;;
72601;SDS011;60644;55.858;37.390;2023-04-07T05:38:17;7.00;;;1.70;;
72601;SDS011;60644;55.858;37.390;2023-04-07T05:40:44;9.25;;;1.10;;
72601;SDS011;60644;55.858;37.390;2023-04-07T05:43:17;6.90;;;1.40;;
72601;SDS011;60644;55.858;37.390;2023-04-07T05:45:43;4.88;;;1.90;;
72601;SDS011;60644;55.858;37.390;2023-04-07T05:48:09;4.73;;;1.33;;
72601;SDS011;60644;55.858;37.390;2023-04-07T05:50:43;5.43;;;1.48;;
72601;SDS011;60644;55.858;37.390;2023-04-07T05:53:12;5.25;;;1.20;;
72601;SDS011;60644;55.858;37.390;2023-04-07T05:55:41;7.35;;;1.38;;
72601;SDS011;60644;55.858;37.390;2023-04-07T05:58:08;11.47;;;1.33;;
72601;SDS011;60644;55.858;37.390;2023-04-07T06:00:34;7.72;;;1.75;;
72601;SDS011;60644;55.858;37.390;2023-04-07T06:03:06;5.30;;;1.30;;
72601;SDS011;60644;55.858;37.390;2023-04-07T06:05:45;7.93;;;1.30;;
72601;SDS011;60644;55.858;37.390;2023-04-07T06:08:12;7.13;;;1.50;;
72601;SDS011;60644;55.858;37.390;2023-04-07T06:10:38;5.67;;;1.20;;
72601;SDS011;60644;55.858;37.390;2023-04-07T06:13:05;5.38;;;1.73;;
72601;SDS011;60644;55.858;37.390;2023-04-07T06:15:32;6.38;;;1.55;;
72601;SDS011;60644;55.858;37.390;2023-04-07T06:17:58;7.82;;;1.75;;
72601;SDS011;60644;55.858;37.390;2023-04-07T06:20:24;7.72;;;1.17;;
72601;SDS011;60644;55.858;37.390;2023-04-07T06:22:52;4.00;;;0.85;;
72601;SDS011;60644;55.858;37.390;2023-04-07T06:25:18;9.02;;;1.20;;
72601;SDS011;60644;55.858;37.390;2023-04-07T06:27:43;8.70;;;1.47;;
72601;SDS011;60644;55.858;37.390;2023-04-07T06:30:09;4.68;;;1.38;;
72601;SDS011;60644;55.858;37.390;2023-04-07T06:32:35;7.07;;;1.15;;
72601;SDS011;60644;55.858;37.390;2023-04-07T06:35:01;7.83;;;1.27;;
72601;SDS011;60644;55.858;37.390;2023-04-07T06:37:26;7.53;;;1.17;;
72601;SDS011;60644;55.858;37.390;2023-04-07T06:39:53;4.10;;;0.90;;
72601;SDS011;60644;55.858;37.390;2023-04-07T06:42:18;6.30;;;1.17;;
72601;SDS011;60644;55.858;37.390;2023-04-07T06:44:55;5.55;;;1.40;;
72601;SDS011;60644;55.858;37.390;2023-04-07T06:47:21;10.23;;;1.23;;
72601;SDS011;60644;55.858;37.390;2023-04-07T06:49:47;5.13;;;0.98;;
72601;SDS011;60644;55.858;37.390;2023-04-07T06:52:15;7.70;;;1.20;;
72601;SDS011;60644;55.858;37.390;2023-04-07T06:54:41;11.10;;;2.17;;
72601;SDS011;60644;55.858;37.390;2023-04-07T06:57:10;6.22;;;1.75;;
72601;SDS011;60644;55.858;37.390;2023-04-07T06:59:36;7.13;;;1.75;;
72601;SDS011;60644;55.858;37.390;2023-04-07T07:02:02;7.78;;;1.77;;
72601;SDS011;60644;55.858;37.390;2023-04-07T07:04:28;9.40;;;1.42;;
72601;SDS011;60644;55.858;37.390;2023-04-07T07:06:54;6.32;;;1.05;;
72601;SDS011;60644;55.858;37.390;2023-04-07T07:09:20;6.85;;;1.25;;
72601;SDS011;60644;55.858;37.390;2023-04-07T07:11:46;6.45;;;1.73;;
72601;SDS011;60644;55.858;37.390;2023-04-07T07:14:12;5.50;;;1.20;;
72601;SDS011;60644;55.858;37.390;2023-04-07T07:16:38;6.97;;;1.17;;
72601;SDS011;60644;55.858;37.390;2023-04-07T07:19:03;9.45;;;2.00;;
72601;SDS011;60644;55.858;37.390;2023-04-07T07:21:30;6.55;;;1.35;;
72601;SDS011;60644;55.858;37.390;2023-04-07T07:24:03;6.57;;;1.73;;
72601;SDS011;60644;55.858;37.390;2023-04-07T07:26:50;8.50;;;1.15;;
72601;SDS011;60644;55.858;37.390;2023-04-07T07:29:22;7.70;;;1.25;;
72601;SDS011;60644;55.858;37.390;2023-04-07T07:31:48;9.70;;;1.23;;
72601;SDS011;60644;55.858;37.390;2023-04-07T07:34:14;6.93;;;1.70;;
72601;SDS011;60644;55.858;37.390;2023-04-07T07:36:45;5.05;;;1.10;;
72601;SDS011;60644;55.858;37.390;2023-04-07T07:39:11;7.90;;;1.45;;
72601;SDS011;60644;55.858;37.390;2023-04-07T07:41:38;5.80;;;1.20;;
72601;SDS011;60644;55.858;37.390;2023-04-07T07:44:04;7.50;;;1.75;;
72601;SDS011;60644;55.858;37.390;2023-04-07T07:46:30;6.97;;;0.80;;
72601;SDS011;60644;55.858;37.390;2023-04-07T07:48:55;6.75;;;1.73;;
72601;SDS011;60644;55.858;37.390;2023-04-07T07:51:21;7.50;;;1.50;;
72601;SDS011;60644;55.858;37.390;2023-04-07T07:53:47;4.65;;;1.00;;
72601;SDS011;60644;55.858;37.390;2023-04-07T07:56:13;4.07;;;0.80;;
72601;SDS011;60644;55.858;37.390;2023-04-07T07:58:39;10.10;;;0.80;;
72601;SDS011;60644;55.858;37.390;2023-04-07T08:01:04;5.68;;;1.23;;
72601;SDS011;60644;55.858;37.390;2023-04-07T08:03:30;8.23;;;1.87;;
72601;SDS011;60644;55.858;37.390;2023-04-07T08:05:56;10.67;;;1.20;;
72601;SDS011;60644;55.858;37.390;2023-04-07T08:08:21;6.60;;;0.95;;
72601;SDS011;60644;55.858;37.390;2023-04-07T08:10:47;5.50;;;0.80;;
72601;SDS011;60644;55.858;37.390;2023-04-07T08:13:13;5.43;;;0.63;;
72601;SDS011;60644;55.858;37.390;2023-04-07T08:15:39;2.90;;;0.50;;
72601;SDS011;60644;55.858;37.390;2023-04-07T08:18:05;5.00;;;1.00;;
72601;SDS011;60644;55.858;37.390;2023-04-07T08:20:31;4.85;;;0.75;;
72601;SDS011;60644;55.858;37.390;2023-04-07T08:23:00;4.55;;;0.50;;
72601;SDS011;60644;55.858;37.390;2023-04-07T08:25:29;2.97;;;0.43;;
72601;SDS011;60644;55.858;37.390;2023-04-07T08:27:57;3.95;;;0.47;;
72601;SDS011;60644;55.858;37.390;2023-04-07T08:30:25;3.50;;;0.40;;
72601;SDS011;60644;55.858;37.390;2023-04-07T08:32:52;5.72;;;0.60;;
72601;SDS011;60644;55.858;37.390;2023-04-07T08:35:17;3.38;;;0.50;;
72601;SDS011;60644;55.858;37.390;2023-04-07T08:37:43;7.60;;;0.83;;
72601;SDS011;60644;55.858;37.390;2023-04-07T08:40:09;3.28;;;0.60;;
72601;SDS011;60644;55.858;37.390;2023-04-07T08:42:38;2.75;;;0.57;;
72601;SDS011;60644;55.858;37.390;2023-04-07T08:45:05;2.80;;;0.30;;
72601;SDS011;60644;55.858;37.390;2023-04-07T08:47:32;5.28;;;0.43;;
72601;SDS011;60644;55.858;37.390;2023-04-07T08:50:02;2.95;;;0.40;;
72601;SDS011;60644;55.858;37.390;2023-04-07T08:55:04;5.43;;;1.08;;
72601;SDS011;60644;55.858;37.390;2023-04-07T08:57:31;2.83;;;0.40;;
72601;SDS011;60644;55.858;37.390;2023-04-07T08:59:58;7.30;;;0.50;;
72601;SDS011;60644;55.858;37.390;2023-04-07T09:02:30;4.07;;;0.30;;
72601;SDS011;60644;55.858;37.390;2023-04-07T09:04:55;4.07;;;0.88;;
72601;SDS011;60644;55.858;37.390;2023-04-07T09:07:21;3.80;;;0.30;;
72601;SDS011;60644;55.858;37.390;2023-04-07T09:09:47;4.87;;;0.40;;
72601;SDS011;60644;55.858;37.390;2023-04-07T09:12:12;4.50;;;0.40;;
72601;SDS011;60644;55.858;37.390;2023-04-07T09:14:38;2.65;;;0.50;;
72601;SDS011;60644;55.858;37.390;2023-04-07T09:17:03;2.33;;;0.30;;
72601;SDS011;60644;55.858;37.390;2023-04-07T09:19:29;7.78;;;0.60;;
72601;SDS011;60644;55.858;37.390;2023-04-07T09:21:55;5.10;;;1.75;;
72601;SDS011;60644;55.858;37.390;2023-04-07T09:24:24;4.00;;;0.47;;
72601;SDS011;60644;55.858;37.390;2023-04-07T09:26:54;7.30;;;0.60;;
72601;SDS011;60644;55.858;37.390;2023-04-07T09:29:32;2.42;;;0.50;;
72601;SDS011;60644;55.858;37.390;2023-04-07T09:31:58;3.13;;;0.32;;
72601;SDS011;60644;55.858;37.390;2023-04-07T09:34:25;1.47;;;0.30;;
72601;SDS011;60644;55.858;37.390;2023-04-07T09:36:50;2.45;;;0.30;;
72601;SDS011;60644;55.858;37.390;2023-04-07T09:39:16;2.95;;;0.40;;
72601;SDS011;60644;55.858;37.390;2023-04-07T09:41:42;3.37;;;0.40;;
72601;SDS011;60644;55.858;37.390;2023-04-07T09:44:08;2.92;;;0.43;;
72601;SDS011;60644;55.858;37.390;2023-04-07T09:46:34;2.60;;;0.30;;
72601;SDS011;60644;55.858;37.390;2023-04-07T09:49:02;2.42;;;0.30;;
72601;SDS011;60644;55.858;37.390;2023-04-07T09:51:31;5.22;;;0.30;;
72601;SDS011;60644;55.858;37.390;2023-04-07T09:53:58;3.67;;;0.37;;
72601;SDS011;60644;55.858;37.390;2023-04-07T09:56:23;4.63;;;0.60;;
72601;SDS011;60644;55.858;37.390;2023-04-07T09:58:51;6.43;;;0.50;;
72601;SDS011;60644;55.858;37.390;2023-04-07T10:01:17;6.90;;;0.60;;
72601;SDS011;60644;55.858;37.390;2023-04-07T10:03:44;5.20;;;0.50;;
72601;SDS011;60644;55.858;37.390;2023-04-07T10:06:11;4.78;;;0.60;;
72601;SDS011;60644;55.858;37.390;2023-04-07T10:08:37;3.83;;;0.40;;
72601;SDS011;60644;55.858;37.390;2023-04-07T10:11:04;5.65;;;0.70;;
72601;SDS011;60644;55.858;37.390;2023-04-07T10:13:30;3.53;;;0.60;;
72601;SDS011;60644;55.858;37.390;2023-04-07T10:15:59;3.95;;;0.50;;
72601;SDS011;60644;55.858;37.390;2023-04-07T10:18:28;6.57;;;0.60;;
72601;SDS011;60644;55.858;37.390;2023-04-07T10:20:56;3.05;;;0.43;;
72601;SDS011;60644;55.858;37.390;2023-04-07T10:23:27;4.75;;;0.60;;
72601;SDS011;60644;55.858;37.390;2023-04-07T10:26:04;3.60;;;0.30;;
72601;SDS011;60644;55.858;37.390;2023-04-07T10:28:34;4.38;;;0.30;;
72601;SDS011;60644;55.858;37.390;2023-04-07T10:31:03;5.28;;;0.75;;
72601;SDS011;60644;55.858;37.390;2023-04-07T10:33:45;4.60;;;0.35;;
72601;SDS011;60644;55.858;37.390;2023-04-07T10:36:16;4.88;;;0.40;;
72601;SDS011;60644;55.858;37.390;2023-04-07T10:38:48;7.07;;;0.60;;
72601;SDS011;60644;55.858;37.390;2023-04-07T10:43:58;5.18;;;0.80;;
72601;SDS011;60644;55.858;37.390;2023-04-07T10:46:24;2.93;;;0.40;;
72601;SDS011;60644;55.858;37.390;2023-04-07T10:49:08;4.05;;;1.00;;
72601;SDS011;60644;55.858;37.390;2023-04-07T10:51:34;6.63;;;0.50;;
72601;SDS011;60644;55.858;37.390;2023-04-07T10:54:20;5.32;;;0.60;;
72601;SDS011;60644;55.858;37.390;2023-04-07T10:59:35;3.42;;;0.45;;
72601;SDS011;60644;55.858;37.390;2023-04-07T11:04:37;3.75;;;0.60;;
72601;SDS011;60644;55.858;37.390;2023-04-07T11:07:02;3.05;;;0.45;;
72601;SDS011;60644;55.858;37.390;2023-04-07T11:09:28;3.10;;;0.40;;
72601;SDS011;60644;55.858;37.390;2023-04-07T11:11:54;5.40;;;0.43;;
72601;SDS011;60644;55.858;37.390;2023-04-07T11:14:30;3.55;;;0.40;;
72601;SDS011;60644;55.858;37.390;2023-04-07T11:16:56;2.85;;;0.40;;
72601;SDS011;60644;55.858;37.390;2023-04-07T11:19:22;3.58;;;0.52;;
72601;SDS011;60644;55.858;37.390;2023-04-07T11:21:48;4.57;;;0.87;;
72601;SDS011;60644;55.858;37.390;2023-04-07T11:24:32;5.53;;;0.68;;
72601;SDS011;60644;55.858;37.390;2023-04-07T11:26:58;3.22;;;0.40;;
72601;SDS011;60644;55.858;37.390;2023-04-07T11:29:30;2.83;;;0.73;;
72601;SDS011;60644;55.858;37.390;2023-04-07T11:31:57;4.75;;;0.65;;
72601;SDS011;60644;55.858;37.390;2023-04-07T11:34:33;3.53;;;0.50;;
72601;SDS011;60644;55.858;37.390;2023-04-07T11:39:43;6.37;;;0.80;;
72601;SDS011;60644;55.858;37.390;2023-04-07T11:42:11;2.95;;;0.55;;
72601;SDS011;60644;55.858;37.390;2023-04-07T11:44:46;7.70;;;0.55;;
72601;SDS011;60644;55.858;37.390;2023-04-07T11:47:12;3.67;;;0.70;;
72601;SDS011;60644;55.858;37.390;2023-04-07T11:49:44;3.27;;;0.73;;
72601;SDS011;60644;55.858;37.390;2023-04-07T11:52:10;3.42;;;0.73;;
72601;SDS011;60644;55.858;37.390;2023-04-07T11:57:07;4.53;;;0.80;;
72601;SDS011;60644;55.858;37.390;2023-04-07T11:59:36;3.53;;;0.52;;
72601;SDS011;60644;55.858;37.390;2023-04-07T12:02:05;3.17;;;0.68;;
72601;SDS011;60644;55.858;37.390;2023-04-07T12:04:31;3.23;;;0.60;;
72601;SDS011;60644;55.858;37.390;2023-04-07T12:07:05;4.05;;;0.85;;
72601;SDS011;60644;55.858;37.390;2023-04-07T12:09:32;3.55;;;0.60;;
72601;SDS011;60644;55.858;37.390;2023-04-07T12:12:02;5.45;;;0.88;;
72601;SDS011;60644;55.858;37.390;2023-04-07T12:14:30;4.83;;;0.70;;
72601;SDS011;60644;55.858;37.390;2023-04-07T12:16:55;3.42;;;0.73;;
72601;SDS011;60644;55.858;37.390;2023-04-07T12:19:22;4.72;;;0.80;;
72601;SDS011;60644;55.858;37.390;2023-04-07T12:21:48;3.93;;;0.70;;
72601;SDS011;60644;55.858;37.390;2023-04-07T12:24:14;3.42;;;0.35;;
72601;SDS011;60644;55.858;37.390;2023-04-07T12:26:40;2.43;;;0.40;;
72601;SDS011;60644;55.858;37.390;2023-04-07T12:29:09;4.75;;;0.70;;
72601;SDS011;60644;55.858;37.390;2023-04-07T12:31:37;4.50;;;0.88;;
72601;SDS011;60644;55.858;37.390;2023-04-07T12:34:03;3.27;;;0.50;;
72601;SDS011;60644;55.858;37.390;2023-04-07T12:36:29;3.67;;;0.70;;
72601;SDS011;60644;55.858;37.390;2023-04-07T12:38:55;4.27;;;0.80;;
72601;SDS011;60644;55.858;37.390;2023-04-07T12:41:24;5.63;;;0.63;;
72601;SDS011;60644;55.858;37.390;2023-04-07T12:43:50;5.50;;;0.70;;
72601;SDS011;60644;55.858;37.390;2023-04-07T12:46:18;3.08;;;0.60;;
72601;SDS011;60644;55.858;37.390;2023-04-07T12:48:47;4.10;;;0.63;;
72601;SDS011;60644;55.858;37.390;2023-04-07T12:51:15;4.23;;;0.70;;
72601;SDS011;60644;55.858;37.390;2023-04-07T12:53:41;4.82;;;0.60;;
72601;SDS011;60644;55.858;37.390;2023-04-07T12:56:07;3.75;;;0.60;;
72601;SDS011;60644;55.858;37.390;2023-04-07T12:58:33;4.23;;;0.57;;
72601;SDS011;60644;55.858;37.390;2023-04-07T13:00:59;6.78;;;0.85;;
72601;SDS011;60644;55.858;37.390;2023-04-07T13:03:25;5.15;;;1.55;;
72601;SDS011;60644;55.858;37.390;2023-04-07T13:05:50;5.40;;;0.60;;
72601;SDS011;60644;55.858;37.390;2023-04-07T13:08:18;4.03;;;0.50;;
72601;SDS011;60644;55.858;37.390;2023-04-07T13:10:45;4.63;;;0.40;;
72601;SDS011;60644;55.858;37.390;2023-04-07T13:13:11;3.00;;;0.60;;
72601;SDS011;60644;55.858;37.390;2023-04-07T13:15:36;4.90;;;0.70;;
72601;SDS011;60644;55.858;37.390;2023-04-07T13:18:02;4.53;;;0.57;;
72601;SDS011;60644;55.858;37.390;2023-04-07T13:20:28;3.38;;;0.43;;
72601;SDS011;60644;55.858;37.390;2023-04-07T13:22:57;6.90;;;0.65;;
72601;SDS011;60644;55.858;37.390;2023-04-07T13:25:22;3.00;;;0.43;;
72601;SDS011;60644;55.858;37.390;2023-04-07T13:27:48;4.63;;;0.50;;
72601;SDS011;60644;55.858;37.390;2023-04-07T13:30:14;4.40;;;0.70;;
72601;SDS011;60644;55.858;37.390;2023-04-07T13:32:40;5.22;;;0.50;;
72601;SDS011;60644;55.858;37.390;2023-04-07T13:35:06;4.28;;;0.60;;
72601;SDS011;60644;55.858;37.390;2023-04-07T13:37:32;4.55;;;0.50;;
72601;SDS011;60644;55.858;37.390;2023-04-07T13:39:57;3.93;;;0.63;;
72601;SDS011;60644;55.858;37.390;2023-04-07T13:42:23;4.17;;;1.00;;
72601;SDS011;60644;55.858;37.390;2023-04-07T13:44:49;4.20;;;0.57;;
72601;SDS011;60644;55.858;37.390;2023-04-07T13:47:16;3.33;;;0.60;;
72601;SDS011;60644;55.858;37.390;2023-04-07T13:49:48;5.30;;;0.50;;
72601;SDS011;60644;55.858;37.390;2023-04-07T13:52:16;3.67;;;0.60;;
72601;SDS011;60644;55.858;37.390;2023-04-07T13:54:42;7.70;;;1.08;;
72601;SDS011;60644;55.858;37.390;2023-04-07T13:57:08;3.55;;;0.40;;
72601;SDS011;60644;55.858;37.390;2023-04-07T13:59:34;5.10;;;0.70;;
72601;SDS011;60644;55.858;37.390;2023-04-07T14:01:59;4.05;;;0.40;;
72601;SDS011;60644;55.858;37.390;2023-04-07T14:04:25;5.03;;;0.93;;
72601;SDS011;60644;55.858;37.390;2023-04-07T14:06:52;5.40;;;0.50;;
72601;SDS011;60644;55.858;37.390;2023-04-07T14:09:17;4.03;;;0.70;;
72601;SDS011;60644;55.858;37.390;2023-04-07T14:11:43;5.43;;;0.40;;
72601;SDS011;60644;55.858;37.390;2023-04-07T14:14:09;3.83;;;0.60;;
72601;SDS011;60644;55.858;37.390;2023-04-07T14:16:35;2.88;;;0.65;;
72601;SDS011;60644;55.858;37.390;2023-04-07T14:19:00;5.70;;;0.80;;
72601;SDS011;60644;55.858;37.390;2023-04-07T14:21:26;7.28;;;0.30;;
72601;SDS011;60644;55.858;37.390;2023-04-07T14:23:52;5.40;;;0.50;;
72601;SDS011;60644;55.858;37.390;2023-04-07T14:26:21;4.75;;;0.40;;
72601;SDS011;60644;55.858;37.390;2023-04-07T14:28:46;4.83;;;0.70;;
72601;SDS011;60644;55.858;37.390;2023-04-07T14:31:16;6.63;;;0.67;;
72601;SDS011;60644;55.858;37.390;2023-04-07T14:33:42;3.35;;;0.40;;
72601;SDS011;60644;55.858;37.390;2023-04-07T14:36:08;4.47;;;1.00;;
72601;SDS011;60644;55.858;37.390;2023-04-07T14:38:33;7.07;;;0.67;;
72601;SDS011;60644;55.858;37.390;2023-04-07T14:40:59;3.92;;;0.70;;
72601;SDS011;60644;55.858;37.390;2023-04-07T14:43:27;4.00;;;0.55;;
72601;SDS011;60644;55.858;37.390;2023-04-07T14:45:52;4.10;;;0.50;;
72601;SDS011;60644;55.858;37.390;2023-04-07T14:48:18;3.17;;;0.60;;
72601;SDS011;60644;55.858;37.390;2023-04-07T14:50:44;6.20;;;1.40;;
72601;SDS011;60644;55.858;37.390;2023-04-07T14:53:10;4.95;;;0.98;;
72601;SDS011;60644;55.858;37.390;2023-04-07T14:55:35;4.97;;;1.00;;
72601;SDS011;60644;55.858;37.390;2023-04-07T14:58:01;4.80;;;0.77;;